Terminal Aerodrome Forecast
Issued by NWS

Home | Current Version | Previous Version | Text Only | Print | Product List | Glossary Off
Versions: 1 2 3 4 5 6 7 8 9 10 11 12 13 14

241
FTUS43 KBIS 201730
TAFDIK
TAF
KDIK 201730Z 2018/2118 27013KT 5SM HZ BKN025 OVC040
     FM201900 25011KT P6SM SCT025 SCT040 SCT100
     FM210000 25007KT P6SM SCT080
     FM211200 25007KT P6SM FEW250
     FM211700 22006KT P6SM FEW250=

USA.gov is the U.S. government's official web portal to all federal, state and local government web resources and services.